JBU490 KLAX-KPHX
Flight info
| Callsign | JBU490 |
|---|---|
| Flight time | N/A |
| Altitude | 37000 |
| Route | DOTSS2 CNERY BLH HYDRR1 |
| Aircraft | A321/M-SDE3FGHIRWY/LB1 |
Departure
| Time | 2026-05-05 08:23 |
|---|---|
| Airport | Los Angeles International Airport (KLAX) |
Arrival
| Time | N/A |
|---|---|
| Airport | Phoenix Sky Harbor International Airport (KPHX) |
| Time | Latitude | Longitude | Altitude | Speed | Heading |
|---|---|---|---|---|---|
| 2026-05-05 08:04 | 33.94101 | -118.40135 | 0 ft | 0 kts | 266° |
| 2026-05-05 08:16 | 33.94102 | -118.40120 | 121 ft | 3 kts | 259° |
| 2026-05-05 08:16 | 33.94108 | -118.40098 | 121 ft | 3 kts | 229° |
| 2026-05-05 08:16 | 33.94121 | -118.40085 | 122 ft | 3 kts | 191° |
| 2026-05-05 08:17 | 33.94135 | -118.40084 | 122 ft | 1 kts | 173° |
| 2026-05-05 08:17 | 33.94136 | -118.40084 | 122 ft | 2 kts | 173° |
| 2026-05-05 08:19 | 33.94135 | -118.40084 | 122 ft | 1 kts | 173° |
| 2026-05-05 08:19 | 33.94098 | -118.40078 | 123 ft | 8 kts | 173° |
| 2026-05-05 08:19 | 33.94034 | -118.40068 | 124 ft | 11 kts | 173° |
| 2026-05-05 08:20 | 33.93956 | -118.40056 | 124 ft | 10 kts | 172° |
| 2026-05-05 08:20 | 33.93891 | -118.40018 | 122 ft | 12 kts | 127° |
| 2026-05-05 08:20 | 33.93889 | -118.39914 | 126 ft | 14 kts | 83° |
| 2026-05-05 08:20 | 33.93902 | -118.39784 | 124 ft | 17 kts | 83° |
| 2026-05-05 08:21 | 33.93918 | -118.39632 | 126 ft | 20 kts | 83° |
| 2026-05-05 08:21 | 33.93937 | -118.39458 | 122 ft | 22 kts | 82° |
| 2026-05-05 08:21 | 33.93957 | -118.39264 | 126 ft | 25 kts | 83° |
| 2026-05-05 08:21 | 33.93980 | -118.39049 | 126 ft | 27 kts | 83° |
| 2026-05-05 08:22 | 33.93993 | -118.38875 | 126 ft | 12 kts | 90° |
| 2026-05-05 08:22 | 33.93934 | -118.38815 | 123 ft | 11 kts | 189° |
| 2026-05-05 08:22 | 33.93897 | -118.38911 | 124 ft | 22 kts | 263° |
| 2026-05-05 08:22 | 33.93846 | -118.39380 | 126 ft | 98 kts | 262° |
| 2026-05-05 08:23 | 33.93728 | -118.40477 | 167 ft | 159 kts | 264° |
| 2026-05-05 08:23 | 33.93578 | -118.41824 | 846 ft | 165 kts | 263° |
| 2026-05-05 08:23 | 33.93429 | -118.43211 | 1590 ft | 171 kts | 264° |
| 2026-05-05 08:23 | 33.93289 | -118.44681 | 2064 ft | 186 kts | 264° |
| 2026-05-05 08:24 | 33.92903 | -118.46256 | 2304 ft | 210 kts | 240° |
| 2026-05-05 08:24 | 33.91976 | -118.47710 | 2816 ft | 222 kts | 232° |
| 2026-05-05 08:24 | 33.91041 | -118.49123 | 3985 ft | 212 kts | 232° |
| 2026-05-05 08:24 | 33.90108 | -118.50490 | 5006 ft | 211 kts | 230° |
| 2026-05-05 08:25 | 33.89153 | -118.51846 | 5947 ft | 214 kts | 230° |
| 2026-05-05 08:25 | 33.88185 | -118.53214 | 6846 ft | 216 kts | 230° |
| 2026-05-05 08:25 | 33.87098 | -118.54482 | 7691 ft | 220 kts | 216° |
| 2026-05-05 08:25 | 33.85737 | -118.55360 | 8538 ft | 226 kts | 201° |
| 2026-05-05 08:26 | 33.84183 | -118.55745 | 9384 ft | 232 kts | 185° |
| 2026-05-05 08:26 | 33.82555 | -118.55575 | 10160 ft | 242 kts | 170° |
| 2026-05-05 08:26 | 33.80822 | -118.55111 | 10526 ft | 267 kts | 169° |
| 2026-05-05 08:26 | 33.78933 | -118.54597 | 10871 ft | 291 kts | 169° |
| 2026-05-05 08:27 | 33.76875 | -118.54039 | 11189 ft | 315 kts | 169° |
| 2026-05-05 08:27 | 33.74661 | -118.53430 | 11493 ft | 337 kts | 167° |
| 2026-05-05 08:27 | 33.72443 | -118.52367 | 12108 ft | 350 kts | 153° |
| 2026-05-05 08:27 | 33.70454 | -118.50631 | 12890 ft | 358 kts | 138° |
| 2026-05-05 08:28 | 33.68857 | -118.48309 | 13664 ft | 365 kts | 123° |
| 2026-05-05 08:28 | 33.67770 | -118.45525 | 14392 ft | 372 kts | 111° |
| 2026-05-05 08:28 | 33.66903 | -118.42587 | 15140 ft | 375 kts | 111° |
| 2026-05-05 08:28 | 33.66027 | -118.39619 | 15892 ft | 379 kts | 111° |
| 2026-05-05 08:29 | 33.65152 | -118.36623 | 16630 ft | 383 kts | 110° |
| 2026-05-05 08:29 | 33.64566 | -118.33473 | 17364 ft | 390 kts | 99° |
| 2026-05-05 08:29 | 33.64457 | -118.30206 | 18076 ft | 396 kts | 91° |
| 2026-05-05 08:30 | 33.64470 | -118.23539 | 19373 ft | 403 kts | 92° |
| 2026-05-05 08:30 | 33.64468 | -118.20157 | 20025 ft | 407 kts | 92° |
| 2026-05-05 08:30 | 33.64466 | -118.16747 | 20672 ft | 411 kts | 92° |
| 2026-05-05 08:30 | 33.64463 | -118.13303 | 21305 ft | 414 kts | 92° |
| 2026-05-05 08:31 | 33.64461 | -118.09831 | 21956 ft | 418 kts | 92° |
| 2026-05-05 08:31 | 33.64461 | -118.06328 | 22590 ft | 422 kts | 92° |
| 2026-05-05 08:31 | 33.64462 | -118.02796 | 23241 ft | 425 kts | 92° |
| 2026-05-05 08:31 | 33.64461 | -117.99230 | 23805 ft | 429 kts | 92° |
| 2026-05-05 08:32 | 33.64456 | -117.95626 | 24263 ft | 434 kts | 93° |
| 2026-05-05 08:32 | 33.64449 | -117.91990 | 24698 ft | 439 kts | 93° |
| 2026-05-05 08:32 | 33.64439 | -117.88303 | 25120 ft | 444 kts | 94° |
| 2026-05-05 08:32 | 33.64424 | -117.84586 | 25527 ft | 449 kts | 94° |
| 2026-05-05 08:33 | 33.64329 | -117.80831 | 25928 ft | 451 kts | 100° |
| 2026-05-05 08:33 | 33.63809 | -117.77131 | 26317 ft | 450 kts | 109° |
| 2026-05-05 08:33 | 33.62940 | -117.73515 | 26724 ft | 452 kts | 112° |
| 2026-05-05 08:33 | 33.62040 | -117.69884 | 27138 ft | 457 kts | 112° |
| 2026-05-05 08:34 | 33.61131 | -117.66211 | 27529 ft | 461 kts | 113° |
| 2026-05-05 08:34 | 33.60214 | -117.62503 | 27926 ft | 466 kts | 113° |
| 2026-05-05 08:34 | 33.59289 | -117.58765 | 28312 ft | 470 kts | 114° |
| 2026-05-05 08:34 | 33.58355 | -117.54989 | 28701 ft | 475 kts | 114° |
| 2026-05-05 08:35 | 33.57412 | -117.51179 | 29082 ft | 479 kts | 114° |
| 2026-05-05 08:35 | 33.56456 | -117.47337 | 29418 ft | 484 kts | 115° |
| 2026-05-05 08:35 | 33.55490 | -117.43457 | 29781 ft | 488 kts | 115° |
| 2026-05-05 08:35 | 33.54515 | -117.39545 | 30118 ft | 492 kts | 115° |
| 2026-05-05 08:36 | 33.53532 | -117.35596 | 30400 ft | 496 kts | 116° |
| 2026-05-05 08:36 | 33.52542 | -117.31621 | 30693 ft | 500 kts | 116° |
| 2026-05-05 08:36 | 33.51541 | -117.27616 | 30988 ft | 503 kts | 116° |
| 2026-05-05 08:36 | 33.50727 | -117.23500 | 31376 ft | 515 kts | 108° |
| 2026-05-05 08:37 | 33.50417 | -117.19181 | 31789 ft | 527 kts | 99° |
| 2026-05-05 08:37 | 33.50372 | -117.14783 | 32172 ft | 528 kts | 99° |
| 2026-05-05 08:37 | 33.50325 | -117.10383 | 32569 ft | 529 kts | 99° |
| 2026-05-05 08:37 | 33.50270 | -117.05970 | 32969 ft | 530 kts | 100° |
| 2026-05-05 08:38 | 33.50208 | -117.01553 | 33365 ft | 531 kts | 100° |
| 2026-05-05 08:38 | 33.50140 | -116.97132 | 33755 ft | 531 kts | 101° |
| 2026-05-05 08:38 | 33.50071 | -116.92700 | 34141 ft | 532 kts | 101° |
| 2026-05-05 08:38 | 33.50002 | -116.88268 | 34506 ft | 532 kts | 101° |
| 2026-05-05 08:39 | 33.49934 | -116.83844 | 34896 ft | 531 kts | 101° |
| 2026-05-05 08:39 | 33.49866 | -116.79501 | 35294 ft | 529 kts | 101° |
| 2026-05-05 08:39 | 33.49795 | -116.75126 | 35685 ft | 528 kts | 101° |
| 2026-05-05 08:39 | 33.49721 | -116.70734 | 36069 ft | 527 kts | 101° |
| 2026-05-05 08:40 | 33.49645 | -116.66351 | 36437 ft | 526 kts | 101° |
| 2026-05-05 08:40 | 33.49567 | -116.61969 | 36784 ft | 526 kts | 101° |
| 2026-05-05 08:40 | 33.49488 | -116.57590 | 36948 ft | 526 kts | 101° |
| 2026-05-05 08:41 | 33.49331 | -116.48862 | 36959 ft | 523 kts | 101° |
| 2026-05-05 08:41 | 33.49173 | -116.40146 | 36944 ft | 524 kts | 101° |
| 2026-05-05 08:42 | 33.49039 | -116.31416 | 36928 ft | 523 kts | 101° |
| 2026-05-05 08:42 | 33.48920 | -116.22775 | 36927 ft | 523 kts | 101° |
| 2026-05-05 08:43 | 33.48789 | -116.14054 | 36914 ft | 524 kts | 101° |
| 2026-05-05 08:43 | 33.48807 | -116.05301 | 36921 ft | 534 kts | 92° |
| 2026-05-05 08:43 | 33.49442 | -116.00877 | 36927 ft | 545 kts | 82° |
| 2026-05-05 08:44 | 33.50612 | -115.96530 | 36928 ft | 550 kts | 76° |
| 2026-05-05 08:44 | 33.53169 | -115.87884 | 36929 ft | 550 kts | 76° |
| 2026-05-05 08:45 | 33.55693 | -115.79227 | 36932 ft | 550 kts | 76° |
| 2026-05-05 08:45 | 33.58207 | -115.70557 | 36926 ft | 550 kts | 77° |
| 2026-05-05 08:46 | 33.60290 | -115.63356 | 36928 ft | 550 kts | 77° |
| 2026-05-05 08:46 | 33.62438 | -115.54613 | 36921 ft | 534 kts | 93° |
| 2026-05-05 08:46 | 33.62489 | -115.50243 | 36921 ft | 521 kts | 102° |
| 2026-05-05 08:47 | 33.62360 | -115.45898 | 36915 ft | 521 kts | 102° |
| 2026-05-05 08:47 | 33.62036 | -115.37223 | 36901 ft | 521 kts | 103° |
| 2026-05-05 08:48 | 33.61676 | -115.28545 | 36882 ft | 520 kts | 103° |
| 2026-05-05 08:48 | 33.61330 | -115.19853 | 36898 ft | 523 kts | 103° |
| 2026-05-05 08:49 | 33.61009 | -115.11120 | 36909 ft | 524 kts | 103° |
| 2026-05-05 08:49 | 33.60681 | -115.02380 | 36921 ft | 524 kts | 103° |
| 2026-05-05 08:50 | 33.60330 | -114.93638 | 36929 ft | 525 kts | 103° |
| 2026-05-05 08:50 | 33.59969 | -114.84900 | 36942 ft | 525 kts | 103° |
| 2026-05-05 08:51 | 33.59506 | -114.76183 | 36925 ft | 517 kts | 109° |
| 2026-05-05 08:51 | 33.58013 | -114.67887 | 36926 ft | 508 kts | 115° |
| 2026-05-05 08:52 | 33.56404 | -114.59633 | 36923 ft | 509 kts | 115° |
| 2026-05-05 08:52 | 33.54794 | -114.51361 | 36923 ft | 510 kts | 115° |
| 2026-05-05 08:53 | 33.53174 | -114.43087 | 36923 ft | 510 kts | 115° |
| 2026-05-05 08:53 | 33.51537 | -114.34804 | 36915 ft | 511 kts | 115° |
| 2026-05-05 08:54 | 33.49903 | -114.26501 | 36929 ft | 512 kts | 115° |
| 2026-05-05 08:54 | 33.48262 | -114.18198 | 36929 ft | 512 kts | 115° |
| 2026-05-05 08:55 | 33.46609 | -114.09883 | 36927 ft | 513 kts | 115° |
| 2026-05-05 08:55 | 33.44952 | -114.01576 | 36921 ft | 513 kts | 115° |
| 2026-05-05 08:56 | 33.43286 | -113.93259 | 36931 ft | 514 kts | 115° |
| 2026-05-05 08:56 | 33.41611 | -113.84945 | 36940 ft | 514 kts | 115° |
| 2026-05-05 08:57 | 33.39931 | -113.76626 | 36945 ft | 514 kts | 115° |
| 2026-05-05 08:57 | 33.38247 | -113.68301 | 36942 ft | 515 kts | 115° |
| 2026-05-05 08:58 | 33.36562 | -113.59975 | 36948 ft | 515 kts | 115° |
| 2026-05-05 08:58 | 33.34870 | -113.51664 | 36960 ft | 514 kts | 115° |
| 2026-05-05 08:59 | 33.33183 | -113.43346 | 36948 ft | 516 kts | 114° |
| 2026-05-05 08:59 | 33.31692 | -113.34931 | 36934 ft | 519 kts | 112° |
| 2026-05-05 09:00 | 33.30316 | -113.26457 | 36926 ft | 519 kts | 112° |
| 2026-05-05 09:00 | 33.28953 | -113.17983 | 36927 ft | 520 kts | 111° |
| 2026-05-05 09:01 | 33.27729 | -113.09453 | 36922 ft | 522 kts | 110° |
| 2026-05-05 09:01 | 33.27450 | -113.05067 | 36922 ft | 538 kts | 97° |
| 2026-05-05 09:01 | 33.27581 | -113.00598 | 36928 ft | 539 kts | 96° |
| 2026-05-05 09:02 | 33.27833 | -112.91642 | 36945 ft | 539 kts | 97° |
| 2026-05-05 09:02 | 33.28054 | -112.82687 | 36955 ft | 540 kts | 96° |
| 2026-05-05 09:03 | 33.28600 | -112.73700 | 36963 ft | 545 kts | 91° |
| 2026-05-05 09:03 | 33.29576 | -112.64679 | 36962 ft | 548 kts | 89° |
| 2026-05-05 09:04 | 33.30587 | -112.55667 | 36956 ft | 547 kts | 90° |
| 2026-05-05 09:04 | 33.31436 | -112.46645 | 36946 ft | 546 kts | 92° |
| 2026-05-05 09:05 | 33.32203 | -112.37618 | 36944 ft | 546 kts | 91° |
| 2026-05-05 09:05 | 33.32992 | -112.28597 | 36940 ft | 546 kts | 91° |
| 2026-05-05 09:06 | 33.33825 | -112.19573 | 36946 ft | 546 kts | 91° |
| 2026-05-05 09:06 | 33.34644 | -112.10656 | 36932 ft | 525 kts | 92° |
| 2026-05-05 09:06 | 33.34895 | -112.06367 | 36937 ft | 508 kts | 96° |
| 2026-05-05 09:07 | 33.34969 | -112.02222 | 36939 ft | 491 kts | 100° |
| 2026-05-05 09:07 | 33.34741 | -111.94179 | 36939 ft | 482 kts | 102° |
| 2026-05-05 09:08 | 33.34620 | -111.86139 | 36968 ft | 486 kts | 99° |
| 2026-05-05 09:08 | 33.34793 | -111.78038 | 36968 ft | 488 kts | 97° |
| 2026-05-05 09:09 | 33.35055 | -111.69928 | 36988 ft | 488 kts | 97° |
| 2026-05-05 09:09 | 33.35266 | -111.61818 | 36986 ft | 487 kts | 97° |
| 2026-05-05 09:10 | 33.35413 | -111.53718 | 36986 ft | 487 kts | 98° |
| 2026-05-05 09:10 | 33.35426 | -111.52973 | 36978 ft | 487 kts | 98° |
| 2026-05-05 09:11 | 33.35427 | -111.52894 | 36979 ft | 487 kts | 98° |